sensor_id;sensor_type;location;lat;lon;timestamp;pressure;altitude;pressure_sealevel;temperature;humidity
63204;BME280;49297;43.210;27.914;2022-10-23T00:01:46;101289.94;;;14.45;60.88
63204;BME280;49297;43.210;27.914;2022-10-23T00:04:17;101294.31;;;14.46;60.79
63204;BME280;49297;43.210;27.914;2022-10-23T00:06:47;101290.22;;;14.42;60.68
63204;BME280;49297;43.210;27.914;2022-10-23T00:09:15;101290.22;;;14.42;60.93
63204;BME280;49297;43.210;27.914;2022-10-23T00:11:42;101278.22;;;14.38;61.01
63204;BME280;49297;43.210;27.914;2022-10-23T00:14:10;101286.50;;;14.35;61.04
63204;BME280;49297;43.210;27.914;2022-10-23T00:16:36;101290.16;;;14.34;61.23
63204;BME280;49297;43.210;27.914;2022-10-23T00:19:03;101289.63;;;14.30;61.58
63204;BME280;49297;43.210;27.914;2022-10-23T00:21:29;101288.78;;;14.30;61.14
63204;BME280;49297;43.210;27.914;2022-10-23T00:23:57;101291.75;;;14.26;60.86
63204;BME280;49297;43.210;27.914;2022-10-23T00:26:23;101291.75;;;14.26;60.55
63204;BME280;49297;43.210;27.914;2022-10-23T00:28:52;101281.91;;;14.27;59.90
63204;BME280;49297;43.210;27.914;2022-10-23T00:31:21;101285.41;;;14.27;59.55
63204;BME280;49297;43.210;27.914;2022-10-23T00:33:47;101287.94;;;14.29;59.59
63204;BME280;49297;43.210;27.914;2022-10-23T00:36:16;101284.56;;;14.27;58.62
63204;BME280;49297;43.210;27.914;2022-10-23T00:38:43;101286.56;;;14.25;58.06
63204;BME280;49297;43.210;27.914;2022-10-23T00:41:23;101279.53;;;14.24;57.69
63204;BME280;49297;43.210;27.914;2022-10-23T00:45:05;101274.53;;;14.21;57.47
63204;BME280;49297;43.210;27.914;2022-10-23T00:46:57;101272.00;;;14.19;57.89
63204;BME280;49297;43.210;27.914;2022-10-23T00:49:24;101262.34;;;14.18;58.64
63204;BME280;49297;43.210;27.914;2022-10-23T00:51:58;101254.63;;;14.15;58.82
63204;BME280;49297;43.210;27.914;2022-10-23T00:54:28;101261.09;;;14.13;58.82
63204;BME280;49297;43.210;27.914;2022-10-23T00:56:59;101259.59;;;14.10;58.53
63204;BME280;49297;43.210;27.914;2022-10-23T00:59:27;101249.91;;;14.09;58.60
63204;BME280;49297;43.210;27.914;2022-10-23T01:01:53;101249.91;;;14.09;58.34
63204;BME280;49297;43.210;27.914;2022-10-23T01:04:20;101243.44;;;14.12;57.93
63204;BME280;49297;43.210;27.914;2022-10-23T01:22:55;101234.13;;;14.71;53.70
63204;BME280;49297;43.210;27.914;2022-10-23T01:31:44;101246.53;;;14.62;56.45
63204;BME280;49297;43.210;27.914;2022-10-23T01:34:43;101245.06;;;14.50;59.25
63204;BME280;49297;43.210;27.914;2022-10-23T01:37:14;101241.59;;;14.40;60.17
63204;BME280;49297;43.210;27.914;2022-10-23T01:39:46;101233.84;;;14.28;61.33
63204;BME280;49297;43.210;27.914;2022-10-23T01:42:18;101223.94;;;14.21;61.94
63204;BME280;49297;43.210;27.914;2022-10-23T01:44:57;101222.47;;;14.08;62.00
63204;BME280;49297;43.210;27.914;2022-10-23T01:47:27;101223.19;;;14.01;61.86
63204;BME280;49297;43.210;27.914;2022-10-23T01:49:57;101219.16;;;13.97;60.96
63204;BME280;49297;43.210;27.914;2022-10-23T01:52:24;101218.06;;;13.89;60.56
63204;BME280;49297;43.210;27.914;2022-10-23T01:54:54;101214.72;;;13.87;60.03
63204;BME280;49297;43.210;27.914;2022-10-23T01:57:24;101213.88;;;13.87;59.50
63204;BME280;49297;43.210;27.914;2022-10-23T02:00:03;101215.81;;;13.85;59.07
63204;BME280;49297;43.210;27.914;2022-10-23T02:02:32;101225.78;;;13.83;58.40
63204;BME280;49297;43.210;27.914;2022-10-23T02:05:11;101221.75;;;13.79;58.08
63204;BME280;49297;43.210;27.914;2022-10-23T02:07:39;101230.00;;;13.76;58.11
63204;BME280;49297;43.210;27.914;2022-10-23T02:10:06;101232.13;;;13.72;57.86
63204;BME280;49297;43.210;27.914;2022-10-23T02:15:36;101224.75;;;13.66;57.07
63204;BME280;49297;43.210;27.914;2022-10-23T02:21:01;101220.44;;;13.55;57.05
63204;BME280;49297;43.210;27.914;2022-10-23T02:26:14;101231.91;;;13.56;56.23
63204;BME280;49297;43.210;27.914;2022-10-23T02:28:49;101227.41;;;13.56;56.21
63204;BME280;49297;43.210;27.914;2022-10-23T02:31:20;101235.25;;;13.58;55.68
63204;BME280;49297;43.210;27.914;2022-10-23T02:33:47;101230.75;;;13.58;55.56
63204;BME280;49297;43.210;27.914;2022-10-23T02:36:14;101229.94;;;13.58;55.20
63204;BME280;49297;43.210;27.914;2022-10-23T02:38:43;101225.63;;;13.57;55.26
63204;BME280;49297;43.210;27.914;2022-10-23T02:51:59;101227.53;;;13.64;54.04
63204;BME280;49297;43.210;27.914;2022-10-23T02:57:14;101220.50;;;13.73;53.61
63204;BME280;49297;43.210;27.914;2022-10-23T03:00:07;101221.59;;;13.80;53.44
63204;BME280;49297;43.210;27.914;2022-10-23T03:02:43;101226.31;;;13.86;53.75
63204;BME280;49297;43.210;27.914;2022-10-23T03:05:15;101231.22;;;13.91;53.26
63204;BME280;49297;43.210;27.914;2022-10-23T03:07:43;101239.63;;;13.86;53.67
63204;BME280;49297;43.210;27.914;2022-10-23T03:10:13;101238.13;;;13.84;53.63
63204;BME280;49297;43.210;27.914;2022-10-23T03:12:39;101238.81;;;13.86;53.76
63204;BME280;49297;43.210;27.914;2022-10-23T03:15:07;101230.69;;;13.87;53.87
63204;BME280;49297;43.210;27.914;2022-10-23T03:17:35;101244.81;;;13.88;53.31
63204;BME280;49297;43.210;27.914;2022-10-23T03:20:04;101227.59;;;13.92;53.31
63204;BME280;49297;43.210;27.914;2022-10-23T03:22:31;101219.97;;;13.97;53.59
63204;BME280;49297;43.210;27.914;2022-10-23T03:24:57;101229.22;;;14.03;53.76
63204;BME280;49297;43.210;27.914;2022-10-23T03:27:24;101226.91;;;14.08;53.84
63204;BME280;49297;43.210;27.914;2022-10-23T03:29:50;101234.69;;;14.01;54.27
63204;BME280;49297;43.210;27.914;2022-10-23T03:32:17;101247.72;;;13.95;55.32
63204;BME280;49297;43.210;27.914;2022-10-23T03:34:44;101253.09;;;13.85;56.15
63204;BME280;49297;43.210;27.914;2022-10-23T03:37:10;101272.44;;;13.77;56.74
63204;BME280;49297;43.210;27.914;2022-10-23T03:39:36;101281.03;;;13.71;57.77
63204;BME280;49297;43.210;27.914;2022-10-23T03:42:02;101279.91;;;13.64;58.10
63204;BME280;49297;43.210;27.914;2022-10-23T03:44:31;101289.88;;;13.62;57.99
63204;BME280;49297;43.210;27.914;2022-10-23T03:46:58;101278.97;;;13.55;57.78
63204;BME280;49297;43.210;27.914;2022-10-23T03:49:25;101275.88;;;13.50;57.43
63204;BME280;49297;43.210;27.914;2022-10-23T03:51:51;101267.50;;;13.45;57.31
63204;BME280;49297;43.210;27.914;2022-10-23T03:54:24;101260.47;;;13.44;56.98
63204;BME280;49297;43.210;27.914;2022-10-23T03:56:52;101258.00;;;13.42;56.61
63204;BME280;49297;43.210;27.914;2022-10-23T03:59:19;101253.09;;;13.38;56.12
63204;BME280;49297;43.210;27.914;2022-10-23T04:01:48;101250.84;;;13.33;56.00
63204;BME280;49297;43.210;27.914;2022-10-23T04:04:16;101250.16;;;13.31;56.44
63204;BME280;49297;43.210;27.914;2022-10-23T04:06:42;101249.28;;;13.30;56.61
63204;BME280;49297;43.210;27.914;2022-10-23T04:09:09;101261.03;;;13.28;57.23
63204;BME280;49297;43.210;27.914;2022-10-23T04:11:35;101259.91;;;13.21;57.92
63204;BME280;49297;43.210;27.914;2022-10-23T04:14:01;101257.00;;;13.24;57.69
63204;BME280;49297;43.210;27.914;2022-10-23T04:16:35;101255.59;;;13.20;58.05
63204;BME280;49297;43.210;27.914;2022-10-23T04:19:05;101261.06;;;13.18;57.86
63204;BME280;49297;43.210;27.914;2022-10-23T04:21:31;101264.41;;;13.20;57.51
63204;BME280;49297;43.210;27.914;2022-10-23T04:23:58;101265.66;;;13.26;56.85
63204;BME280;49297;43.210;27.914;2022-10-23T04:26:27;101256.44;;;13.30;56.35
63204;BME280;49297;43.210;27.914;2022-10-23T04:28:54;101269.19;;;13.36;55.21
63204;BME280;49297;43.210;27.914;2022-10-23T04:31:22;101276.19;;;13.37;55.06
63204;BME280;49297;43.210;27.914;2022-10-23T04:33:47;101277.72;;;13.40;54.62
63204;BME280;49297;43.210;27.914;2022-10-23T04:36:13;101275.19;;;13.38;54.30
63204;BME280;49297;43.210;27.914;2022-10-23T04:38:39;101288.91;;;13.43;54.09
63204;BME280;49297;43.210;27.914;2022-10-23T04:41:05;101283.59;;;13.43;54.33
63204;BME280;49297;43.210;27.914;2022-10-23T04:43:33;101284.00;;;13.48;54.15
63204;BME280;49297;43.210;27.914;2022-10-23T04:45:59;101271.13;;;13.54;53.83
63204;BME280;49297;43.210;27.914;2022-10-23T04:48:26;101275.28;;;13.56;53.85
63204;BME280;49297;43.210;27.914;2022-10-23T04:51:01;101274.75;;;13.62;53.69
63204;BME280;49297;43.210;27.914;2022-10-23T04:53:28;101280.16;;;13.70;52.99
63204;BME280;49297;43.210;27.914;2022-10-23T04:55:56;101281.97;;;13.80;52.85
63204;BME280;49297;43.210;27.914;2022-10-23T04:58:26;101271.88;;;13.83;52.48
63204;BME280;49297;43.210;27.914;2022-10-23T05:00:53;101267.66;;;13.90;52.23
63204;BME280;49297;43.210;27.914;2022-10-23T05:03:20;101274.22;;;13.96;52.09
63204;BME280;49297;43.210;27.914;2022-10-23T05:05:46;101280.34;;;14.06;51.26
63204;BME280;49297;43.210;27.914;2022-10-23T05:08:13;101280.88;;;14.10;51.46
63204;BME280;49297;43.210;27.914;2022-10-23T05:10:47;101288.00;;;14.19;51.55
63204;BME280;49297;43.210;27.914;2022-10-23T05:13:16;101291.19;;;14.23;51.28
63204;BME280;49297;43.210;27.914;2022-10-23T05:15:50;101302.81;;;14.22;51.66
63204;BME280;49297;43.210;27.914;2022-10-23T05:18:26;101301.00;;;14.22;51.82
63204;BME280;49297;43.210;27.914;2022-10-23T05:20:58;101293.56;;;14.26;51.77
63204;BME280;49297;43.210;27.914;2022-10-23T05:23:27;101294.41;;;14.26;51.58
63204;BME280;49297;43.210;27.914;2022-10-23T05:25:54;101296.22;;;14.26;51.21
63204;BME280;49297;43.210;27.914;2022-10-23T05:28:22;101292.44;;;14.28;51.27
63204;BME280;49297;43.210;27.914;2022-10-23T05:30:48;101290.44;;;14.31;50.90
63204;BME280;49297;43.210;27.914;2022-10-23T05:33:14;101297.47;;;14.32;50.72
63204;BME280;49297;43.210;27.914;2022-10-23T05:35:43;101299.81;;;14.35;50.67
63204;BME280;49297;43.210;27.914;2022-10-23T05:38:09;101304.56;;;14.41;50.68
63204;BME280;49297;43.210;27.914;2022-10-23T05:40:36;101311.66;;;14.50;50.50
63204;BME280;49297;43.210;27.914;2022-10-23T05:43:02;101314.47;;;14.58;50.33
63204;BME280;49297;43.210;27.914;2022-10-23T05:45:30;101317.50;;;14.63;50.31
63204;BME280;49297;43.210;27.914;2022-10-23T05:47:57;101317.72;;;14.70;50.38
63204;BME280;49297;43.210;27.914;2022-10-23T05:50:24;101316.47;;;14.74;50.41
63204;BME280;49297;43.210;27.914;2022-10-23T05:52:50;101326.38;;;14.82;50.34
63204;BME280;49297;43.210;27.914;2022-10-23T05:55:17;101329.13;;;14.90;50.53
63204;BME280;49297;43.210;27.914;2022-10-23T05:57:43;101330.88;;;14.99;50.19
63204;BME280;49297;43.210;27.914;2022-10-23T06:00:15;101328.41;;;15.06;50.43
63204;BME280;49297;43.210;27.914;2022-10-23T06:02:41;101342.53;;;15.16;50.38
63204;BME280;49297;43.210;27.914;2022-10-23T06:05:08;101346.25;;;15.23;50.01
63204;BME280;49297;43.210;27.914;2022-10-23T06:07:34;101333.53;;;15.35;50.21
63204;BME280;49297;43.210;27.914;2022-10-23T06:10:00;101328.63;;;15.49;50.92
63204;BME280;49297;43.210;27.914;2022-10-23T06:12:27;101318.41;;;15.62;51.63
63204;BME280;49297;43.210;27.914;2022-10-23T06:14:53;101321.81;;;15.72;51.87
63204;BME280;49297;43.210;27.914;2022-10-23T06:17:20;101333.09;;;15.84;51.59
63204;BME280;49297;43.210;27.914;2022-10-23T06:19:46;101329.97;;;15.97;50.87
63204;BME280;49297;43.210;27.914;2022-10-23T06:22:13;101326.75;;;16.11;50.16
63204;BME280;49297;43.210;27.914;2022-10-23T06:24:41;101328.13;;;16.24;49.17
63204;BME280;49297;43.210;27.914;2022-10-23T06:27:07;101336.22;;;16.40;48.72
63204;BME280;49297;43.210;27.914;2022-10-23T06:29:34;101337.09;;;16.49;48.19
63204;BME280;49297;43.210;27.914;2022-10-23T06:32:01;101342.31;;;16.59;48.04
63204;BME280;49297;43.210;27.914;2022-10-23T06:34:29;101346.81;;;16.66;47.53
63204;BME280;49297;43.210;27.914;2022-10-23T06:36:55;101347.34;;;16.70;47.78
63204;BME280;49297;43.210;27.914;2022-10-23T06:39:21;101346.03;;;16.74;47.91
63204;BME280;49297;43.210;27.914;2022-10-23T06:41:48;101339.19;;;16.80;47.32
63204;BME280;49297;43.210;27.914;2022-10-23T06:44:14;101344.22;;;16.83;47.67
63204;BME280;49297;43.210;27.914;2022-10-23T06:46:40;101336.06;;;16.84;47.83
63204;BME280;49297;43.210;27.914;2022-10-23T06:49:06;101337.91;;;16.92;48.07
63204;BME280;49297;43.210;27.914;2022-10-23T06:51:33;101336.44;;;16.98;47.86
63204;BME280;49297;43.210;27.914;2022-10-23T06:53:59;101337.13;;;17.08;48.19
63204;BME280;49297;43.210;27.914;2022-10-23T06:56:26;101338.97;;;17.24;48.52
63204;BME280;49297;43.210;27.914;2022-10-23T06:58:55;101346.19;;;17.40;48.88
63204;BME280;49297;43.210;27.914;2022-10-23T07:01:22;101346.16;;;17.56;49.20
63204;BME280;49297;43.210;27.914;2022-10-23T07:03:49;101348.31;;;17.77;49.28
63204;BME280;49297;43.210;27.914;2022-10-23T07:06:14;101350.34;;;17.92;48.75
63204;BME280;49297;43.210;27.914;2022-10-23T07:08:40;101360.69;;;18.03;48.72
63204;BME280;49297;43.210;27.914;2022-10-23T07:11:09;101341.38;;;18.16;48.31
63204;BME280;49297;43.210;27.914;2022-10-23T07:13:37;101361.13;;;18.31;48.02
63204;BME280;49297;43.210;27.914;2022-10-23T07:16:12;101341.28;;;18.49;47.77
63204;BME280;49297;43.210;27.914;2022-10-23T07:18:38;101342.09;;;18.57;47.59
63204;BME280;49297;43.210;27.914;2022-10-23T07:21:05;101342.81;;;18.74;47.45
63204;BME280;49297;43.210;27.914;2022-10-23T07:23:31;101355.16;;;18.92;47.14
63204;BME280;49297;43.210;27.914;2022-10-23T07:26:06;101334.66;;;18.99;47.09
63204;BME280;49297;43.210;27.914;2022-10-23T07:28:33;101354.53;;;19.13;46.73
63204;BME280;49297;43.210;27.914;2022-10-23T07:31:00;101347.25;;;19.21;46.89
63204;BME280;49297;43.210;27.914;2022-10-23T07:33:26;101365.00;;;19.23;46.33
63204;BME280;49297;43.210;27.914;2022-10-23T07:35:52;101350.31;;;19.33;46.51
63204;BME280;49297;43.210;27.914;2022-10-23T07:38:20;101353.44;;;19.45;46.15
63204;BME280;49297;43.210;27.914;2022-10-23T07:40:47;101350.47;;;19.55;46.14
63204;BME280;49297;43.210;27.914;2022-10-23T07:43:13;101370.97;;;19.56;46.23
63204;BME280;49297;43.210;27.914;2022-10-23T07:45:39;101357.66;;;19.63;46.05
63204;BME280;49297;43.210;27.914;2022-10-23T07:48:05;101348.69;;;19.70;46.08
63204;BME280;49297;43.210;27.914;2022-10-23T07:50:31;101359.41;;;19.70;45.84
63204;BME280;49297;43.210;27.914;2022-10-23T07:52:58;101364.53;;;19.80;45.97
63204;BME280;49297;43.210;27.914;2022-10-23T07:55:25;101367.47;;;19.93;45.84
63204;BME280;49297;43.210;27.914;2022-10-23T07:57:51;101370.44;;;19.99;46.16
63204;BME280;49297;43.210;27.914;2022-10-23T08:00:17;101372.84;;;20.08;46.11
63204;BME280;49297;43.210;27.914;2022-10-23T08:02:44;101382.09;;;20.21;46.08
63204;BME280;49297;43.210;27.914;2022-10-23T08:05:11;101397.31;;;20.28;45.93
63204;BME280;49297;43.210;27.914;2022-10-23T08:07:39;101405.38;;;20.43;45.98
63204;BME280;49297;43.210;27.914;2022-10-23T08:10:07;101415.03;;;20.52;45.69
63204;BME280;49297;43.210;27.914;2022-10-23T08:12:36;101407.53;;;20.63;45.46
63204;BME280;49297;43.210;27.914;2022-10-23T08:15:03;101396.28;;;20.74;45.06
63204;BME280;49297;43.210;27.914;2022-10-23T08:17:29;101393.31;;;20.84;44.79
63204;BME280;49297;43.210;27.914;2022-10-23T08:19:56;101385.69;;;20.87;44.56
63204;BME280;49297;43.210;27.914;2022-10-23T08:22:23;101392.28;;;20.85;44.49
63204;BME280;49297;43.210;27.914;2022-10-23T08:24:50;101397.38;;;20.80;44.89
63204;BME280;49297;43.210;27.914;2022-10-23T08:27:18;101411.19;;;20.91;44.57
63204;BME280;49297;43.210;27.914;2022-10-23T08:29:44;101409.78;;;20.96;44.44
63204;BME280;49297;43.210;27.914;2022-10-23T08:32:10;101419.16;;;21.00;44.39
63204;BME280;49297;43.210;27.914;2022-10-23T08:34:36;101404.56;;;21.09;44.17
63204;BME280;49297;43.210;27.914;2022-10-23T08:37:03;101418.09;;;21.16;44.07
63204;BME280;49297;43.210;27.914;2022-10-23T08:39:29;101406.94;;;21.19;44.04
63204;BME280;49297;43.210;27.914;2022-10-23T08:41:55;101407.00;;;21.25;43.63
63204;BME280;49297;43.210;27.914;2022-10-23T08:49:34;101402.47;;;21.47;42.52
63204;BME280;49297;43.210;27.914;2022-10-23T08:52:13;101416.81;;;21.48;42.35
63204;BME280;49297;43.210;27.914;2022-10-23T08:57:31;101415.00;;;21.55;42.41
63204;BME280;49297;43.210;27.914;2022-10-23T09:00:04;101413.41;;;21.61;42.12
63204;BME280;49297;43.210;27.914;2022-10-23T09:02:45;101415.09;;;21.68;42.23
63204;BME280;49297;43.210;27.914;2022-10-23T09:08:18;101441.50;;;21.73;42.06
63204;BME280;49297;43.210;27.914;2022-10-23T09:11:07;101438.25;;;21.84;42.14
63204;BME280;49297;43.210;27.914;2022-10-23T09:19:14;101450.94;;;22.12;41.66
63204;BME280;49297;43.210;27.914;2022-10-23T09:21:46;101454.25;;;22.14;41.55
63204;BME280;49297;43.210;27.914;2022-10-23T09:24:21;101438.66;;;22.10;41.49
63204;BME280;49297;43.210;27.914;2022-10-23T09:26:51;101432.06;;;22.12;41.48
63204;BME280;49297;43.210;27.914;2022-10-23T09:29:45;101444.47;;;22.13;41.35
63204;BME280;49297;43.210;27.914;2022-10-23T09:32:16;101438.91;;;22.15;41.50
63204;BME280;49297;43.210;27.914;2022-10-23T09:34:51;101441.84;;;22.20;41.44
63204;BME280;49297;43.210;27.914;2022-10-23T09:37:26;101452.53;;;22.28;41.31
63204;BME280;49297;43.210;27.914;2022-10-23T09:40:23;101454.38;;;22.28;41.08
63204;BME280;49297;43.210;27.914;2022-10-23T09:43:09;101473.03;;;22.29;41.37
63204;BME280;49297;43.210;27.914;2022-10-23T09:45:40;101477.44;;;22.37;41.34
63204;BME280;49297;43.210;27.914;2022-10-23T09:48:14;101472.09;;;22.43;40.83
63204;BME280;49297;43.210;27.914;2022-10-23T09:53:39;101466.75;;;22.50;40.64
63204;BME280;49297;43.210;27.914;2022-10-23T09:56:34;101477.16;;;22.53;40.89
63204;BME280;49297;43.210;27.914;2022-10-23T10:01:51;101464.13;;;22.63;40.74
63204;BME280;49297;43.210;27.914;2022-10-23T10:04:29;101468.09;;;22.68;40.85
63204;BME280;49297;43.210;27.914;2022-10-23T10:06:58;101471.47;;;22.76;40.37
63204;BME280;49297;43.210;27.914;2022-10-23T10:09:27;101470.66;;;22.83;40.53
63204;BME280;49297;43.210;27.914;2022-10-23T10:15:14;101461.59;;;22.97;39.89
63204;BME280;49297;43.210;27.914;2022-10-23T10:20:46;101472.88;;;23.07;39.69
63204;BME280;49297;43.210;27.914;2022-10-23T10:34:02;101458.41;;;23.28;38.83
63204;BME280;49297;43.210;27.914;2022-10-23T10:36:41;101462.97;;;23.21;38.73
63204;BME280;49297;43.210;27.914;2022-10-23T10:40:00;101457.13;;;23.17;38.94
63204;BME280;49297;43.210;27.914;2022-10-23T10:42:49;101454.84;;;23.21;39.26
63204;BME280;49297;43.210;27.914;2022-10-23T10:45:38;101450.31;;;23.28;39.33
63204;BME280;49297;43.210;27.914;2022-10-23T10:48:39;101457.97;;;23.31;38.76
63204;BME280;49297;43.210;27.914;2022-10-23T10:51:13;101458.00;;;23.38;39.14
63204;BME280;49297;43.210;27.914;2022-10-23T10:53:47;101454.50;;;23.44;38.79
63204;BME280;49297;43.210;27.914;2022-10-23T10:56:22;101452.84;;;23.50;38.87
63204;BME280;49297;43.210;27.914;2022-10-23T10:58:54;101463.84;;;23.55;38.74
63204;BME280;49297;43.210;27.914;2022-10-23T11:01:35;101445.56;;;23.57;37.96
63204;BME280;49297;43.210;27.914;2022-10-23T11:04:08;101441.81;;;23.58;38.22
63204;BME280;49297;43.210;27.914;2022-10-23T11:06:40;101442.03;;;23.70;38.38
63204;BME280;49297;43.210;27.914;2022-10-23T11:09:21;101437.25;;;23.79;37.78
63204;BME280;49297;43.210;27.914;2022-10-23T11:12:00;101436.03;;;23.81;37.77
63204;BME280;49297;43.210;27.914;2022-10-23T11:14:33;101434.81;;;23.84;37.79
63204;BME280;49297;43.210;27.914;2022-10-23T11:17:18;101441.84;;;23.85;37.24
63204;BME280;49297;43.210;27.914;2022-10-23T11:22:37;101440.63;;;23.87;37.31
63204;BME280;49297;43.210;27.914;2022-10-23T11:33:00;101455.34;;;24.18;36.39
63204;BME280;49297;43.210;27.914;2022-10-23T11:40:56;101456.78;;;24.27;36.50
63204;BME280;49297;43.210;27.914;2022-10-23T11:43:30;101448.25;;;24.44;36.12
63204;BME280;49297;43.210;27.914;2022-10-23T11:46:09;101439.25;;;24.63;35.71
63204;BME280;49297;43.210;27.914;2022-10-23T11:48:38;101440.00;;;24.91;35.00
63204;BME280;49297;43.210;27.914;2022-10-23T11:51:05;101443.16;;;25.19;34.44
63204;BME280;49297;43.210;27.914;2022-10-23T11:56:26;101449.47;;;25.52;33.99
63204;BME280;49297;43.210;27.914;2022-10-23T11:58:54;101459.50;;;25.76;33.60
63204;BME280;49297;43.210;27.914;2022-10-23T12:01:26;101462.44;;;26.00;32.84
63204;BME280;49297;43.210;27.914;2022-10-23T12:03:59;101464.09;;;26.26;32.75
63204;BME280;49297;43.210;27.914;2022-10-23T12:06:49;101466.22;;;26.43;32.40
63204;BME280;49297;43.210;27.914;2022-10-23T12:12:26;101474.25;;;26.74;31.54
63204;BME280;49297;43.210;27.914;2022-10-23T12:17:45;101461.59;;;27.47;30.97
63204;BME280;49297;43.210;27.914;2022-10-23T12:25:21;101470.59;;;28.90;28.67
63204;BME280;49297;43.210;27.914;2022-10-23T12:38:23;101473.81;;;27.68;30.63
63204;BME280;49297;43.210;27.914;2022-10-23T12:41:14;101476.22;;;27.34;30.68
63204;BME280;49297;43.210;27.914;2022-10-23T12:43:42;101478.56;;;27.31;31.32
63204;BME280;49297;43.210;27.914;2022-10-23T12:46:25;101474.22;;;27.42;30.43
63204;BME280;49297;43.210;27.914;2022-10-23T12:48:56;101478.56;;;27.12;30.92
63204;BME280;49297;43.210;27.914;2022-10-23T12:51:31;101481.94;;;26.77;31.71
63204;BME280;49297;43.210;27.914;2022-10-23T12:53:58;101481.91;;;26.59;31.88
63204;BME280;49297;43.210;27.914;2022-10-23T12:56:25;101482.72;;;26.59;31.55
63204;BME280;49297;43.210;27.914;2022-10-23T12:58:57;101473.38;;;26.55;31.86
63204;BME280;49297;43.210;27.914;2022-10-23T13:01:31;101484.28;;;26.30;32.01
63204;BME280;49297;43.210;27.914;2022-10-23T13:04:07;101487.28;;;25.97;32.86
63204;BME280;49297;43.210;27.914;2022-10-23T13:06:41;101483.28;;;25.74;33.84
63204;BME280;49297;43.210;27.914;2022-10-23T13:09:21;101486.56;;;25.51;33.63
63204;BME280;49297;43.210;27.914;2022-10-23T13:11:49;101483.97;;;25.31;34.42
63204;BME280;49297;43.210;27.914;2022-10-23T13:14:37;101489.88;;;25.15;34.12
63204;BME280;49297;43.210;27.914;2022-10-23T13:17:07;101484.97;;;24.92;34.57
63204;BME280;49297;43.210;27.914;2022-10-23T13:19:34;101487.53;;;24.80;35.13
63204;BME280;49297;43.210;27.914;2022-10-23T13:22:16;101494.22;;;24.64;34.97
63204;BME280;49297;43.210;27.914;2022-10-23T13:24:49;101484.66;;;24.48;35.61
63204;BME280;49297;43.210;27.914;2022-10-23T13:27:32;101487.59;;;24.33;35.69
63204;BME280;49297;43.210;27.914;2022-10-23T13:30:26;101487.00;;;24.18;36.02
63204;BME280;49297;43.210;27.914;2022-10-23T13:32:52;101489.06;;;24.09;35.92
63204;BME280;49297;43.210;27.914;2022-10-23T13:35:20;101497.19;;;24.02;36.30
63204;BME280;49297;43.210;27.914;2022-10-23T13:37:47;101494.47;;;23.95;36.53
63204;BME280;49297;43.210;27.914;2022-10-23T13:40:25;101504.03;;;23.91;36.49
63204;BME280;49297;43.210;27.914;2022-10-23T13:42:53;101501.13;;;23.93;36.63
63204;BME280;49297;43.210;27.914;2022-10-23T13:45:24;101504.25;;;23.97;36.66
63204;BME280;49297;43.210;27.914;2022-10-23T13:47:52;101510.28;;;23.99;36.85
63204;BME280;49297;43.210;27.914;2022-10-23T13:50:18;101511.53;;;23.96;36.54
63204;BME280;49297;43.210;27.914;2022-10-23T13:52:45;101501.97;;;23.93;36.84
63204;BME280;49297;43.210;27.914;2022-10-23T13:55:31;101504.88;;;23.92;37.05
63204;BME280;49297;43.210;27.914;2022-10-23T13:57:59;101511.31;;;23.84;36.72
63204;BME280;49297;43.210;27.914;2022-10-23T14:00:25;101507.13;;;23.75;36.95
63204;BME280;49297;43.210;27.914;2022-10-23T14:02:51;101506.47;;;23.66;36.95
63204;BME280;49297;43.210;27.914;2022-10-23T14:05:18;101506.66;;;23.58;36.82
63204;BME280;49297;43.210;27.914;2022-10-23T14:07:46;101507.91;;;23.49;36.87
63204;BME280;49297;43.210;27.914;2022-10-23T14:10:12;101513.94;;;23.44;36.83
63204;BME280;49297;43.210;27.914;2022-10-23T14:12:40;101515.16;;;23.42;36.84
63204;BME280;49297;43.210;27.914;2022-10-23T14:15:07;101523.47;;;23.33;36.81
63204;BME280;49297;43.210;27.914;2022-10-23T14:17:34;101523.22;;;23.28;36.98
63204;BME280;49297;43.210;27.914;2022-10-23T14:20:01;101525.06;;;23.21;37.21
63204;BME280;49297;43.210;27.914;2022-10-23T14:22:27;101520.69;;;23.20;37.21
63204;BME280;49297;43.210;27.914;2022-10-23T14:24:53;101517.56;;;23.16;37.13
63204;BME280;49297;43.210;27.914;2022-10-23T14:27:19;101526.47;;;23.10;37.44
63204;BME280;49297;43.210;27.914;2022-10-23T14:29:44;101526.06;;;23.07;37.46
63204;BME280;49297;43.210;27.914;2022-10-23T14:32:10;101519.34;;;23.03;37.67
63204;BME280;49297;43.210;27.914;2022-10-23T14:34:40;101518.50;;;23.02;37.43
63204;BME280;49297;43.210;27.914;2022-10-23T14:37:07;101520.59;;;23.00;37.78
63204;BME280;49297;43.210;27.914;2022-10-23T14:39:35;101514.75;;;22.96;37.63
63204;BME280;49297;43.210;27.914;2022-10-23T14:42:01;101539.44;;;22.93;37.61
63204;BME280;49297;43.210;27.914;2022-10-23T14:44:27;101535.47;;;22.89;37.71
63204;BME280;49297;43.210;27.914;2022-10-23T14:46:53;101539.59;;;22.85;37.88
63204;BME280;49297;43.210;27.914;2022-10-23T14:49:19;101546.63;;;22.79;37.80
63204;BME280;49297;43.210;27.914;2022-10-23T14:51:54;101548.69;;;22.77;37.86
63204;BME280;49297;43.210;27.914;2022-10-23T14:54:20;101543.69;;;22.74;38.10
63204;BME280;49297;43.210;27.914;2022-10-23T14:56:46;101544.09;;;22.71;38.18
63204;BME280;49297;43.210;27.914;2022-10-23T14:59:12;101549.25;;;22.66;38.13
63204;BME280;49297;43.210;27.914;2022-10-23T15:01:42;101548.75;;;22.56;38.20